Martha — WDD8520 — position and weather

sailwx.info

Track history (hours):
 
Tides and Currents Weather Stations Pressure Air Temp Water Temp Dewpoint Dewpoint Depression Visibility Wind Speed Wind Dir Waves Ship Positions

Martha

Owner: TRIPLE C TOWING, LLC, HOUMA, LA. More information available from US FCC via Universal Licensing System and Coast Guard Vessel Documentation Center.

Last reported at 2018-Jun-18 21:12 UTC. Time now 2018-Jun-21 14:13 UTC.
Position N 29°37' W 090°42'.

Length 20 m; draft 4 m.

Type: Tug. MMSI: 367299240.

Date/timePositionNaut miles runAvg speedWind from/ knotsBaromVisibWave heightAir tempDewpointWater temp
2018-Jun-18 21:12N 29°37' W 090°42'1 6.0
2018-Jun-18 21:00N 29°36' W 090°43'1 2.0
2018-Jun-18 20:30N 29°35' W 090°43'1 1.2
2018-Jun-18 20:00N 29°35' W 090°43'2 0.0
2018-Jun-16 22:39N 29°36' W 090°41'1 4.0
2018-Jun-16 22:24N 29°37' W 090°42'2 4.7
2018-Jun-16 22:00N 29°35' W 090°43'1 2.9
2018-Jun-16 21:30N 29°34' W 090°43'1 1.6
2018-Jun-16 20:59N 29°34' W 090°43'1 2.1
2018-Jun-16 20:28N 29°33' W 090°42'2 4.9
2018-Jun-16 20:00N 29°36' W 090°43'1 0.4
2018-Jun-16 17:19N 29°36' W 090°42'0 0.0
2018-Jun-16 17:00N 29°36' W 090°42'0 0.9
2018-Jun-16 16:30N 29°36' W 090°43'3 5.3
2018-Jun-16 16:00N 29°33' W 090°43'1 2.0
2018-Jun-16 15:30N 29°34' W 090°43'0 0.0
2018-Jun-16 15:00N 29°34' W 090°43'0 0.0
2018-Jun-16 14:30N 29°34' W 090°43'0 0.0
2018-Jun-16 14:00N 29°34' W 090°43'0 0.0
2018-Jun-16 13:30N 29°34' W 090°43'0 0.0
2018-Jun-16 13:00N 29°34' W 090°43'0 0.0
2018-Jun-16 12:30N 29°34' W 090°43'0 0.0
2018-Jun-16 12:00N 29°34' W 090°43'0 0.9
2018-Jun-16 11:30N 29°34' W 090°43'2 3.1
2018-Jun-16 11:00N 29°36' W 090°43'1 0.1
2018-Jun-16 01:10N 29°37' W 090°42'1 6.5
2018-Jun-16 01:00N 29°36' W 090°43'2 3.7
2018-Jun-16 00:30N 29°34' W 090°42'0 0.4
2018-Jun-16 00:00N 29°34' W 090°42'2 3.2
2018-Jun-15 23:30N 29°35' W 090°43'1 2.1
2018-Jun-15 22:57N 29°36' W 090°42'0 0.0
2018-Jun-15 22:30N 29°36' W 090°42'0 0.0
2018-Jun-15 22:00N 29°36' W 090°42'0 0.9
2018-Jun-15 21:29N 29°36' W 090°43'2 5.0
2018-Jun-15 21:00N 29°34' W 090°42'0 0.8
2018-Jun-15 20:28N 29°33' W 090°42'3 4.6
2018-Jun-15 19:54N 29°36' W 090°43'1 1.9
2018-Jun-15 19:17N 29°37' W 090°42'1 0.0
2018-Jun-14 18:58N 29°37' W 090°42'3 5.6
2018-Jun-14 18:30N 29°34' W 090°43'2 3.1
2018-Jun-14 18:00N 29°33' W 090°42'2 4.0
2018-Jun-14 17:30N 29°35' W 090°43'  
Track history (hours):
 
Tides and Currents Weather Stations Pressure Air Temp Water Temp Dewpoint Dewpoint Depression Visibility Wind Speed Wind Dir Waves Ship Positions

Martha

Owner: TRIPLE C TOWING, LLC, HOUMA, LA. More information available from US FCC via Universal Licensing System and Coast Guard Vessel Documentation Center.

Last reported at 2018-Jun-18 21:12 UTC. Time now 2018-Jun-21 14:13 UTC.
Position N 29°37' W 090°42'.

Length 20 m; draft 4 m.

Type: Tug. MMSI: 367299240.

Date/timePositionNaut miles runAvg speedWind from/ knotsBaromVisibWave heightAir tempDewpointWater temp
2018-Jun-18 21:12N 29°37' W 090°42'1 6.0
2018-Jun-18 21:00N 29°36' W 090°43'1 2.0
2018-Jun-18 20:30N 29°35' W 090°43'1 1.2
2018-Jun-18 20:00N 29°35' W 090°43'2 0.0
2018-Jun-16 22:39N 29°36' W 090°41'1 4.0
2018-Jun-16 22:24N 29°37' W 090°42'2 4.7
2018-Jun-16 22:00N 29°35' W 090°43'1 2.9
2018-Jun-16 21:30N 29°34' W 090°43'1 1.6
2018-Jun-16 20:59N 29°34' W 090°43'1 2.1
2018-Jun-16 20:28N 29°33' W 090°42'2 4.9
2018-Jun-16 20:00N 29°36' W 090°43'1 0.4
2018-Jun-16 17:19N 29°36' W 090°42'0 0.0
2018-Jun-16 17:00N 29°36' W 090°42'0 0.9
2018-Jun-16 16:30N 29°36' W 090°43'3 5.3
2018-Jun-16 16:00N 29°33' W 090°43'1 2.0
2018-Jun-16 15:30N 29°34' W 090°43'0 0.0
2018-Jun-16 15:00N 29°34' W 090°43'0 0.0
2018-Jun-16 14:30N 29°34' W 090°43'0 0.0
2018-Jun-16 14:00N 29°34' W 090°43'0 0.0
2018-Jun-16 13:30N 29°34' W 090°43'0 0.0
2018-Jun-16 13:00N 29°34' W 090°43'0 0.0
2018-Jun-16 12:30N 29°34' W 090°43'0 0.0
2018-Jun-16 12:00N 29°34' W 090°43'0 0.9
2018-Jun-16 11:30N 29°34' W 090°43'2 3.1
2018-Jun-16 11:00N 29°36' W 090°43'1 0.1
2018-Jun-16 01:10N 29°37' W 090°42'1 6.5
2018-Jun-16 01:00N 29°36' W 090°43'2 3.7
2018-Jun-16 00:30N 29°34' W 090°42'0 0.4
2018-Jun-16 00:00N 29°34' W 090°42'2 3.2
2018-Jun-15 23:30N 29°35' W 090°43'1 2.1
2018-Jun-15 22:57N 29°36' W 090°42'0 0.0
2018-Jun-15 22:30N 29°36' W 090°42'0 0.0
2018-Jun-15 22:00N 29°36' W 090°42'0 0.9
2018-Jun-15 21:29N 29°36' W 090°43'2 5.0
2018-Jun-15 21:00N 29°34' W 090°42'0 0.8
2018-Jun-15 20:28N 29°33' W 090°42'3 4.6
2018-Jun-15 19:54N 29°36' W 090°43'1 1.9
2018-Jun-15 19:17N 29°37' W 090°42'1 0.0
2018-Jun-14 18:58N 29°37' W 090°42'3 5.6
2018-Jun-14 18:30N 29°34' W 090°43'2 3.1
2018-Jun-14 18:00N 29°33' W 090°42'2 4.0
2018-Jun-14 17:30N 29°35' W 090°43'  

Dump ship's entire track history